Chadstone Weather > Observations for 06/04/21

Select Day:



Observations
Time Temp Hum DP Wind Gust Dir Rain >9am Press
C % C kph kph mm hPa
00:00 14.4 84 11.7 0.9 6.1 NNE 0.0 1011.6
00:10 14.4 84 11.7 0.1 3.6 N 0.0 1011.5
00:20 14.5 84 11.8 0.3 3.6 ESE 0.0 1011.4
00:30 14.5 84 11.8 0.1 3.6 NNE 0.0 1011.4
00:40 14.6 85 12.1 0.1 3.6 NNE 0.0 1011.4
00:50 14.6 85 12.1 0.4 5.0 NNE 0.0 1011.3
01:00 14.5 85 12.0 0.5 5.0 N 0.0 1011.2
01:10 14.5 85 12.0 0.5 3.6 NNE 0.0 1011.3
01:20 14.5 85 12.0 0.1 3.6 NNE 0.0 1011.2
01:30 14.4 86 12.1 0.1 3.6 NNE 0.0 1011.2
01:40 14.3 86 12.0 0.3 6.1 NNE 0.0 1011.1
01:50 14.2 86 11.9 0.4 6.1 NNE 0.0 1011.0
02:00 14.0 86 11.7 0.1 3.6 NNW 0.0 1010.9
02:10 13.9 87 11.8 0.0 3.6 NNE 0.0 1010.8
02:20 13.7 88 11.8 0.0 2.5 NNE 0.0 1010.6
02:30 13.6 88 11.7 0.0 1.1 N 0.0 1010.5
02:40 13.5 88 11.6 0.2 5.0 NNE 0.0 1010.5
02:50 13.5 88 11.6 0.9 5.0 NNE 0.0 1010.3
03:00 13.5 89 11.7 0.8 7.2 NNE 0.0 1010.2
03:10 13.3 89 11.5 0.2 5.0 NNE 0.0 1010.3
03:20 13.3 89 11.5 0.6 6.1 NNE 0.0 1010.0
03:30 13.1 89 11.3 0.7 3.6 NNE 0.0 1010.0
03:40 13.1 89 11.3 0.9 6.1 NNE 0.0 1010.1
03:50 13.1 89 11.3 1.1 5.0 N 0.0 1009.9
04:00 13.1 89 11.3 0.9 6.1 NNE 0.0 1009.9
04:10 13.0 89 11.2 0.1 3.6 NNE 0.0 1009.7
04:20 12.9 89 11.1 0.9 7.2 NNE 0.0 1009.7
04:30 12.9 89 11.1 1.8 7.2 N 0.0 1010.1
04:40 13.0 89 11.2 1.2 7.2 E 0.0 1010.0
04:50 13.0 89 11.2 1.8 7.2 E 0.0 1010.0
05:00 13.1 89 11.3 1.8 7.2 ESE 0.0 1010.0
05:10 13.2 89 11.4 1.3 7.2 NNE 0.0 1010.0
05:20 13.2 88 11.3 1.4 8.6 NNE 0.0 1010.0
05:30 13.3 88 11.4 0.5 6.1 NNE 0.0 1010.1
05:40 13.3 88 11.4 1.0 6.1 NNE 0.0 1010.3
05:50 13.4 87 11.3 1.2 7.2 N 0.0 1010.5
06:00 13.4 87 11.3 0.8 5.0 NNE 0.0 1010.6
06:10 13.5 87 11.4 1.3 5.0 N 0.0 1010.6
06:20 13.5 87 11.4 1.4 7.2 N 0.0 1010.6
06:30 13.7 86 11.4 1.3 6.1 SE 0.0 1010.6
06:40 13.8 86 11.5 0.7 6.1 S 0.0 1010.7
06:50 13.8 86 11.5 0.6 6.1 NNE 0.0 1010.8
07:00 13.9 86 11.6 0.4 5.0 NNE 0.0 1010.9
07:10 14.0 85 11.5 0.1 2.5 NNE 0.0 1011.1
07:20 14.0 84 11.3 0.0 3.6 SSE 0.0 1011.0
07:30 14.2 84 11.5 1.4 7.2 NNE 0.0 1011.2
07:40 14.3 84 11.6 1.2 9.7 NNE 0.0 1011.3
07:50 14.5 84 11.8 1.2 8.6 N 0.0 1011.3
08:00 14.7 83 11.8 1.4 7.2 NNE 0.0 1011.3
08:10 14.9 83 12.0 0.1 2.5 NNE 0.0 1011.4
08:20 15.1 81 11.9 0.6 6.1 N 0.0 1011.4
08:30 15.2 81 12.0 0.5 5.0 N 0.0 1011.4
08:40 15.4 79 11.8 2.7 8.6 NE 0.0 1011.4
08:50 15.6 78 11.8 2.1 7.2 S 0.0 1011.6
09:00 15.6 77 11.6 5.3 9.7 NNE 0.0 1011.7
09:10 15.8 77 11.8 1.4 8.6 NNE 0.0 1011.7
09:20 15.8 76 11.6 5.2 13.3 N 0.0 1011.7
09:30 15.8 77 11.8 4.0 11.2 NNE 0.0 1011.7
09:40 16.1 76 11.9 2.5 8.6 NNE 0.0 1011.8
09:50 16.1 76 11.9 4.4 9.7 NNE 0.0 1011.9
10:00 16.3 76 12.1 4.6 11.2 NNE 0.0 1012.6
10:10 16.4 76 12.2 6.0 15.8 S 0.0 1012.6
10:20 16.5 76 12.3 7.3 14.8 SW 0.0 1012.5
10:30 16.6 76 12.4 5.3 12.2 S 0.0 1012.4
10:40 16.7 76 12.5 5.3 13.3 SSW 0.0 1012.2
10:50 16.7 75 12.3 6.0 13.3 S 0.0 1012.0
11:00 16.8 75 12.4 4.9 12.2 SSW 0.0 1012.0
11:10 17.2 74 12.5 4.7 12.2 SSE 0.0 1012.1
11:20 17.4 74 12.7 3.0 9.7 S 0.0 1011.9
11:30 17.6 73 12.7 1.8 7.2 SSW 0.0 1011.9
11:40 18.2 72 13.1 4.1 11.2 SSE 0.0 1011.8
11:50 18.4 71 13.1 3.7 12.2 SSE 0.0 1011.6
12:00 18.9 70 13.3 6.2 15.8 SE 0.0 1011.6
12:10 18.7 68 12.7 4.9 15.8 SSE 0.0 1011.5
12:20 19.2 69 13.4 3.4 14.8 S 0.0 1011.4
12:30 19.2 67 12.9 2.5 11.2 SW 0.0 1011.2
12:40 19.1 67 12.8 2.1 12.2 SSW 0.0 1011.0
12:50 19.1 67 12.8 4.0 14.8 S 0.0 1011.0
13:00 19.2 67 12.9 2.0 12.2 SSE 0.0 1010.9
13:10 19.3 67 13.0 2.7 14.8 SSE 0.0 1010.9
13:20 19.3 67 13.0 2.8 15.8 SE 0.0 1010.7
13:30 19.5 67 13.2 5.0 14.8 SE 0.0 1010.6
13:40 19.5 67 13.2 5.1 15.8 SE 0.0 1010.4
13:50 19.9 68 13.8 5.1 14.8 SSE 0.0 1010.3
14:00 19.9 67 13.6 3.1 13.3 SSE 0.0 1010.2
14:10 19.7 67 13.4 6.7 14.8 SE 0.0 1010.1
14:20 19.7 67 13.4 1.9 11.2 SE 0.0 1010.1
14:30 19.8 67 13.5 4.1 13.3 SE 0.0 1010.1
14:40 19.7 67 13.4 3.9 14.8 SSE 0.0 1010.1
14:50 19.8 68 13.7 3.7 9.7 SE 0.0 1010.1
15:00 19.9 67 13.6 2.4 9.7 SSE 0.0 1010.1
15:10 20.0 66 13.5 2.9 11.2 SE 0.0 1010.1
15:20 20.0 67 13.7 2.5 11.2 SSE 0.0 1010.1
15:30 19.7 68 13.6 4.0 13.3 SSE 0.0 1010.2
15:40 19.6 67 13.3 3.4 12.2 SSE 0.0 1010.2
15:50 19.6 68 13.5 3.9 11.2 SSW 0.0 1010.0
16:00 19.6 68 13.5 2.3 9.7 SE 0.0 1010.0
16:10 19.6 68 13.5 2.8 13.3 SSE 0.0 1010.0
16:20 19.5 69 13.7 3.5 13.3 S 0.0 1010.1
16:30 19.6 69 13.8 5.3 13.3 SE 0.0 1010.0
16:40 19.5 69 13.7 4.5 11.2 E 0.0 1010.0
16:50 19.4 70 13.8 4.4 11.2 SSE 0.0 1010.1
17:00 19.4 70 13.8 3.3 12.2 SSE 0.0 1010.1
17:10 19.4 70 13.8 4.8 12.2 ESE 0.0 1010.1
17:20 19.3 71 13.9 1.2 9.7 SSE 0.0 1010.1
17:30 19.2 71 13.8 2.9 9.7 ESE 0.0 1010.1
17:40 19.0 71 13.6 5.1 12.2 SE 0.0 1010.0
17:50 19.0 72 13.8 3.0 11.2 SSE 0.0 1010.1
18:00 18.9 73 14.0 2.8 14.8 SE 0.0 1010.1
18:10 18.6 72 13.5 5.7 15.8 SSE 0.0 1010.2
18:20 18.4 73 13.5 2.7 17.3 SSE 0.0 1010.3
18:30 18.3 73 13.4 1.8 11.2 SE 0.0 1010.3
18:40 18.1 74 13.4 2.0 11.2 SSE 0.0 1010.4
18:50 18.0 74 13.3 2.3 12.2 SSE 0.0 1010.5
19:00 18.0 75 13.5 4.2 11.2 SSE 0.0 1010.4
19:10 17.9 74 13.2 2.5 9.7 S 0.0 1010.5
19:20 17.9 74 13.2 2.0 8.6 SSE 0.0 1010.5
19:30 17.8 75 13.3 0.4 6.1 N 0.0 1010.6
19:40 17.7 75 13.2 0.1 5.0 SSE 0.0 1010.5
19:50 17.7 75 13.2 1.9 7.2 SSW 0.0 1010.6
20:00 17.6 76 13.3 1.5 8.6 SSW 0.0 1010.6
20:10 17.5 76 13.2 0.9 6.1 SSW 0.0 1010.6
20:20 17.5 76 13.2 0.6 7.2 SSE 0.0 1010.4
20:30 17.5 77 13.4 3.2 9.7 SSW 0.0 1010.4
20:40 17.5 77 13.4 4.2 11.2 SSW 0.0 1010.4
20:50 17.4 78 13.5 2.7 11.2 SW 0.0 1010.4
21:00 17.4 78 13.5 0.9 6.1 SSW 0.0 1010.6
21:10 17.4 78 13.5 1.7 9.7 S 0.0 1010.4
21:20 17.4 79 13.7 3.1 9.7 SSE 0.0 1010.3
21:30 17.3 79 13.6 0.6 7.2 S 0.0 1010.3
21:40 17.3 80 13.8 0.8 7.2 SSE 0.0 1010.3
21:50 17.3 80 13.8 0.2 7.2 S 0.0 1010.2
22:00 17.2 81 13.9 0.1 6.1 S 0.0 1010.2
22:10 17.0 81 13.7 0.1 6.1 SSE 0.0 1010.1
22:20 16.8 82 13.7 0.5 8.6 WSW 0.0 1010.1
22:30 16.6 83 13.7 0.2 5.0 SSW 0.0 1010.0
22:40 16.4 84 13.7 0.0 1.1 SSW 0.0 1010.0
22:50 16.2 84 13.5 0.0 1.1 S 0.0 1009.9
23:00 16.0 85 13.5 0.0 1.1 SSW 0.0 1009.7
23:10 15.9 86 13.6 0.4 7.2 SE 0.0 1009.5
23:20 15.8 87 13.6 0.3 5.0 SSE 0.0 1009.4
23:30 15.6 88 13.6 0.0 1.1 SSW 0.0 1009.4
23:40 15.5 88 13.5 0.4 6.1 SW 0.0 1009.3
23:50 15.4 89 13.6 0.5 6.1 WSW 0.0 1009.2